Hovedside
METAR-TAF:

METAR-TAF

Lufthavner :

Brønnøysund, Norge

Brønnøysund lufthavn

breddegrad: 65-28N, lengdegrad: 012-13E, høyde over havet: 0 m

Gjeldene værobservasjon

Denne rapporten ble laget for 34 minutter siden, klokken 09:50 UTC
Vind 9 kt fra Nord-nordvest, skiftende mellom Nordvest og Nord
Temperatur 11°C
Luftfuktighet 82%
Trykk 992 hPa
Sikt 10 km eller mer
Få skyer i en høyde av 800 ft
Spredte skyer i en høyde av 1200 ft
Brutte skyer i en høyde av 3000 ft
lette regnbyger

METAR: ENBN 250950Z 34009KT 310V010 9999 -SHRA FEW008 SCT012 BKN030 11/08 Q0992

Tid: 12:24 (10:24 UTC)

Varsel

Denne rapporten ble laget for 23 timer og 24 minutter siden, klokken 11:00 UTC
Varsel gyldig fra 24. klokken 12 UTC til 24. klokken 15 UTC
Vind 10 kt fra Sørvest
Sikt 10 km eller mer
Få skyer i en høyde av 500 ft
Brutte skyer i en høyde av 3000 ft

TAF: ENBN 241100Z 2412/2415 22010KT 9999 FEW005 BKN030

Værobservasjoner og værvarsel for over 4000 flyplasser (METAR- og TAF-rapporter).

Tilgjengelige stasjoner er representert av de røde og gule prikkene på kartet.

Hold musepekeren over prikken for å se navnet på stasjonen.

Klikk så for å se værobservasjoner og -varsler.

For å forandre kartet kan du klikke på den grønne knappen med svart kryss for å zoome inn, på den grønne knappen med strek for å zoome ut, eller på de grønne pilene for å se tilstøtende kart.


METAR-TAF: